Time;durP1;ratioP1;P1;durP2;ratioP2;P2;SDS_P1;SDS_P2;PMS_P1;PMS_P2;Temp;Humidity;BMP_temperature;BMP_pressure;BME280_temperature;BME280_humidity;BME280_pressure;Samples;Min_cycle;Max_cycle;Signal;HPM_P1;HPM_P2
2022/05/20 00:00:06;;;;;;;4.97;2.65;;;13.60;99.90;;;;;;5037098;28;20089;-85
2022/05/20 00:02:32;;;;;;;3.58;2.92;;;13.60;99.90;;;;;;5036953;28;20107;-84
2022/05/20 00:04:59;;;;;;;3.60;2.70;;;13.50;99.90;;;;;;5036710;28;20038;-82
2022/05/20 00:07:25;;;;;;;3.78;2.80;;;13.50;99.90;;;;;;5037153;28;20120;-82
2022/05/20 00:09:51;;;;;;;5.55;3.28;;;13.50;99.90;;;;;;5037060;28;20092;-83
2022/05/20 00:12:19;;;;;;;6.13;3.42;;;13.50;99.90;;;;;;5036958;28;20150;-83
2022/05/20 00:14:45;;;;;;;4.65;3.20;;;13.60;99.90;;;;;;5035681;28;20377;-85
2022/05/20 00:17:11;;;;;;;4.55;3.38;;;13.60;99.90;;;;;;5036578;28;20044;-83
2022/05/20 00:19:37;;;;;;;4.07;3.45;;;13.60;99.90;;;;;;5036385;28;20050;-81
2022/05/20 00:22:05;;;;;;;6.22;3.50;;;13.60;99.90;;;;;;5036231;28;20056;-84
2022/05/20 00:24:31;;;;;;;6.85;4.20;;;13.60;99.90;;;;;;5036522;28;20044;-82
2022/05/20 00:26:57;;;;;;;6.00;4.20;;;13.60;99.90;;;;;;5036932;28;20359;-81
2022/05/20 00:29:23;;;;;;;7.32;4.70;;;13.50;99.90;;;;;;5036454;28;20056;-84
2022/05/20 00:31:49;;;;;;;6.50;4.45;;;13.50;99.90;;;;;;5035274;28;20053;-85
2022/05/20 00:34:15;;;;;;;5.38;4.70;;;13.50;99.90;;;;;;5036134;28;20047;-84
2022/05/20 00:36:40;;;;;;;6.57;4.70;;;13.50;99.90;;;;;;5036180;28;20045;-81
2022/05/20 00:39:06;;;;;;;6.30;4.28;;;13.50;99.90;;;;;;5036247;28;20099;-82
2022/05/20 00:41:32;;;;;;;7.88;4.30;;;13.50;99.90;;;;;;5036099;28;20045;-84
2022/05/20 00:43:58;;;;;;;5.65;4.15;;;13.50;99.90;;;;;;5034947;28;20092;-83
2022/05/20 00:46:27;;;;;;;5.57;4.13;;;13.40;99.90;;;;;;5036336;28;20077;-82
2022/05/20 00:49:07;;;;;;;5.65;3.90;;;13.50;99.90;;;;;;5036200;28;20123;-84
2022/05/20 00:51:58;;;;;;;5.60;4.43;;;13.50;99.90;;;;;;5035456;28;20061;-87
2022/05/20 00:54:27;;;;;;;4.68;4.18;;;13.40;99.90;;;;;;5035520;28;20049;-84
2022/05/20 00:57:06;;;;;;;5.78;4.00;;;13.50;99.90;;;;;;5035978;28;20045;-86
2022/05/20 00:59:34;;;;;;;7.72;4.53;;;13.40;99.90;;;;;;5035970;28;20383;-86
2022/05/20 01:02:07;;;;;;;9.90;5.43;;;13.40;99.90;;;;;;5036122;28;20398;-85
2022/05/20 01:04:33;;;;;;;6.32;5.00;;;13.40;99.90;;;;;;5035641;28;20561;-84
2022/05/20 01:06:59;;;;;;;7.55;5.05;;;13.40;99.90;;;;;;5018124;28;20478;-83
2022/05/20 01:09:25;;;;;;;9.18;5.07;;;13.40;99.90;;;;;;5034473;28;20056;-86
2022/05/20 01:11:52;;;;;;;5.78;4.43;;;13.40;99.90;;;;;;5035369;28;20037;-85
2022/05/20 01:14:23;;;;;;;6.03;4.30;;;13.40;99.90;;;;;;5035533;28;20124;-83
2022/05/20 01:16:49;;;;;;;7.40;4.57;;;13.40;99.90;;;;;;5035869;28;20049;-84
2022/05/20 01:19:25;;;;;;;5.85;4.50;;;13.40;99.90;;;;;;5034242;28;20156;-86
2022/05/20 01:21:51;;;;;;;5.15;4.65;;;13.30;99.90;;;;;;5034919;28;20050;-84
2022/05/20 01:24:17;;;;;;;10.98;5.43;;;13.30;99.90;;;;;;5035249;28;20050;-83
2022/05/20 01:26:42;;;;;;;7.75;5.18;;;13.30;99.90;;;;;;5034397;28;20124;-86
2022/05/20 01:29:08;;;;;;;7.93;4.88;;;13.30;99.90;;;;;;5035669;28;20060;-84
2022/05/20 01:31:34;;;;;;;8.38;5.45;;;13.20;99.90;;;;;;5035301;28;20095;-83
2022/05/20 01:34:00;;;;;;;7.10;5.15;;;13.20;99.90;;;;;;5035125;28;20048;-85
2022/05/20 01:36:26;;;;;;;7.47;5.47;;;13.20;99.90;;;;;;5035084;28;20052;-84
2022/05/20 01:38:53;;;;;;;10.00;5.72;;;13.20;99.90;;;;;;5035057;28;20063;-83
2022/05/20 01:41:38;;;;;;;7.15;5.20;;;13.20;99.90;;;;;;5034286;28;20053;-83
2022/05/20 01:44:09;;;;;;;8.27;5.75;;;13.10;99.90;;;;;;5034061;28;20075;-83
2022/05/20 01:47:01;;;;;;;6.82;5.53;;;13.10;99.90;;;;;;5035087;28;20048;-84
2022/05/20 01:49:33;;;;;;;10.25;5.50;;;13.10;99.90;;;;;;5035236;28;20049;-83
2022/05/20 01:52:24;;;;;;;8.95;5.72;;;13.10;99.90;;;;;;5034705;28;20068;-83
2022/05/20 01:55:02;;;;;;;8.00;6.18;;;13.00;99.90;;;;;;5034730;28;20044;-84
2022/05/20 01:57:34;;;;;;;7.68;6.07;;;13.00;99.90;;;;;;5034128;28;20053;-82
2022/05/20 02:00:12;;;;;;;10.68;6.00;;;13.00;99.90;;;;;;5034516;28;20131;-85
2022/05/20 02:02:54;;;;;;;8.40;6.10;;;13.00;99.90;;;;;;5034887;28;20452;-83
2022/05/20 02:05:27;;;;;;;9.88;6.40;;;12.90;99.90;;;;;;5034621;28;20045;-83
2022/05/20 02:07:58;;;;;;;7.68;5.68;;;12.90;99.90;;;;;;5034571;28;20128;-84
2022/05/20 02:10:37;;;;;;;9.73;6.07;;;12.90;99.90;;;;;;5034690;28;20052;-83
2022/05/20 02:13:07;;;;;;;6.88;6.15;;;12.80;99.90;;;;;;5033615;28;20041;-83
2022/05/20 02:15:57;;;;;;;7.50;6.07;;;12.80;99.90;;;;;;5034388;28;20109;-83
2022/05/20 02:18:42;;;;;;;8.25;5.63;;;12.80;99.90;;;;;;5033332;28;20045;-83
2022/05/20 02:21:12;;;;;;;8.38;6.10;;;12.80;99.90;;;;;;5034459;28;20464;-83
2022/05/20 02:23:44;;;;;;;9.00;6.38;;;12.80;99.90;;;;;;5034088;28;20272;-84
2022/05/20 02:26:13;;;;;;;7.88;6.35;;;12.80;99.90;;;;;;5034531;28;20041;-86
2022/05/20 02:29:01;;;;;;;7.55;6.70;;;12.80;99.90;;;;;;5016557;28;20103;-85
2022/05/20 02:31:37;;;;;;;13.43;6.93;;;12.80;99.90;;;;;;5016896;28;20057;-85
2022/05/20 02:34:03;;;;;;;9.80;7.03;;;12.80;99.90;;;;;;5034751;28;20077;-85
2022/05/20 02:36:34;;;;;;;9.27;7.18;;;12.70;99.90;;;;;;5033227;28;20474;-85
2022/05/20 02:39:02;;;;;;;11.07;7.93;;;12.70;99.90;;;;;;5034123;28;20085;-85
2022/05/20 02:41:29;;;;;;;11.60;7.32;;;12.60;99.90;;;;;;5033726;28;20045;-84
2022/05/20 02:43:55;;;;;;;9.43;6.80;;;12.60;99.90;;;;;;5034234;28;20045;-84
2022/05/20 02:46:21;;;;;;;7.72;6.43;;;12.50;99.90;;;;;;5016545;28;20549;-86
2022/05/20 02:48:47;;;;;;;9.52;7.00;;;12.50;99.90;;;;;;5032908;28;20512;-85
2022/05/20 02:51:16;;;;;;;10.70;7.05;;;12.40;99.90;;;;;;5033803;28;20470;-85
2022/05/20 02:53:43;;;;;;;8.80;6.95;;;12.40;99.90;;;;;;5033714;28;20050;-84
2022/05/20 02:56:09;;;;;;;10.73;7.43;;;12.40;99.90;;;;;;5016063;28;20140;-83
2022/05/20 03:04:09;;;;;;;9.75;6.90;;;12.30;99.90;;;;;;5033874;28;20100;-85
2022/05/20 03:06:36;;;;;;;8.52;6.05;;;12.40;99.90;;;;;;5033306;28;20120;-85
2022/05/20 03:09:04;;;;;;;8.60;6.85;;;12.40;99.90;;;;;;5015412;28;20098;-84
2022/05/20 03:11:30;;;;;;;8.80;6.68;;;12.40;99.90;;;;;;5033456;28;20485;-85
2022/05/20 03:13:55;;;;;;;9.70;7.10;;;12.40;99.90;;;;;;5033425;28;20128;-84
2022/05/20 03:16:21;;;;;;;9.00;6.68;;;12.30;99.90;;;;;;5032323;28;20048;-83
2022/05/20 03:18:47;;;;;;;8.18;6.75;;;12.20;99.90;;;;;;5033300;28;20525;-84
2022/05/20 03:21:12;;;;;;;7.57;6.78;;;12.00;99.90;;;;;;5032279;28;20049;-84
2022/05/20 03:23:38;;;;;;;8.50;7.22;;;12.20;99.90;;;;;;5033003;28;20265;-85
2022/05/20 03:26:04;;;;;;;9.50;7.28;;;12.20;99.90;;;;;;5033331;28;20045;-85
2022/05/20 03:28:31;;;;;;;8.38;7.43;;;12.10;99.90;;;;;;5032168;28;20060;-86
2022/05/20 03:31:07;;;;;;;9.88;6.80;;;12.10;99.90;;;;;;5032208;28;20490;-86
2022/05/20 03:33:34;;;;;;;9.18;7.25;;;12.00;99.90;;;;;;5032936;28;20041;-84
2022/05/20 03:36:00;;;;;;;9.45;7.40;;;12.30;99.90;;;;;;5031961;28;20076;-86
2022/05/20 03:38:25;;;;;;;7.68;6.85;;;12.00;99.90;;;;;;5033189;28;20087;-85
2022/05/20 03:40:51;;;;;;;10.50;7.40;;;12.00;99.90;;;;;;5033238;28;20096;-86
2022/05/20 03:43:17;;;;;;;9.82;7.70;;;12.00;99.90;;;;;;5015636;28;20137;-86
2022/05/20 03:45:43;;;;;;;8.98;7.55;;;12.00;99.90;;;;;;5033065;28;20037;-86
2022/05/20 03:48:09;;;;;;;9.25;7.07;;;12.00;99.90;;;;;;5032953;28;20049;-84
2022/05/20 03:50:36;;;;;;;10.05;7.03;;;11.90;99.90;;;;;;5015594;28;20038;-85
2022/05/20 03:53:02;;;;;;;9.10;7.75;;;11.90;99.90;;;;;;5032807;28;20464;-85
2022/05/20 03:55:28;;;;;;;10.43;7.85;;;11.90;99.90;;;;;;5031754;28;20045;-87
2022/05/20 03:57:54;;;;;;;9.52;7.10;;;11.90;99.90;;;;;;5033003;28;20045;-86
2022/05/20 04:00:20;;;;;;;8.65;6.78;;;11.80;99.90;;;;;;5032846;28;20405;-84
2022/05/20 04:02:46;;;;;;;8.55;7.25;;;11.90;99.90;;;;;;5031912;28;20045;-85
2022/05/20 04:05:12;;;;;;;11.70;8.55;;;11.90;99.90;;;;;;5032962;28;20052;-86
2022/05/20 04:07:40;;;;;;;9.63;7.90;;;12.00;99.90;;;;;;5032949;28;20042;-86
2022/05/20 04:10:09;;;;;;;11.90;8.15;;;11.90;99.90;;;;;;5033066;28;20168;-85
2022/05/20 04:12:40;;;;;;;9.63;8.15;;;12.00;99.90;;;;;;5032802;28;20061;-87
2022/05/20 04:15:10;;;;;;;9.68;8.50;;;11.90;99.90;;;;;;5031443;28;20512;-85
2022/05/20 04:17:36;;;;;;;10.25;8.40;;;11.90;99.90;;;;;;5033157;28;20068;-87
2022/05/20 04:20:03;;;;;;;12.05;8.50;;;12.10;99.90;;;;;;5034599;28;20045;-87
2022/05/20 04:22:34;;;;;;;9.77;8.77;;;11.90;99.90;;;;;;5036363;28;20366;-86
2022/05/20 04:25:00;;;;;;;9.95;8.63;;;12.00;99.90;;;;;;5035865;28;20060;-85
2022/05/20 04:27:27;;;;;;;13.15;8.73;;;12.10;99.90;;;;;;5036668;28;20041;-86
2022/05/20 04:29:54;;;;;;;10.57;8.98;;;11.90;99.90;;;;;;5036155;28;20056;-86
2022/05/20 04:32:19;;;;;;;9.70;8.50;;;12.00;99.90;;;;;;5037098;28;20049;-86
2022/05/20 04:34:46;;;;;;;13.43;9.07;;;12.00;99.90;;;;;;5035170;28;20397;-87
2022/05/20 04:37:11;;;;;;;10.45;9.15;;;12.00;99.90;;;;;;5035196;28;20049;-87
2022/05/20 04:39:37;;;;;;;11.30;9.40;;;12.20;99.90;;;;;;5036104;28;20053;-87
2022/05/20 04:47:33;;;;;;;10.57;7.82;;;12.30;99.90;;;;;;5036163;28;20053;-87
2022/05/20 04:49:59;;;;;;;11.70;8.20;;;12.40;99.90;;;;;;5036024;28;20049;-86
2022/05/20 04:52:25;;;;;;;12.45;8.65;;;12.20;99.90;;;;;;5034141;28;20131;-85
2022/05/20 04:54:52;;;;;;;15.02;9.05;;;12.20;99.90;;;;;;5035775;28;20041;-85
2022/05/20 04:57:18;;;;;;;12.02;8.50;;;12.20;99.90;;;;;;5035998;28;20057;-85
2022/05/20 04:59:43;;;;;;;11.18;8.68;;;12.50;99.90;;;;;;5035903;28;20114;-85
2022/05/20 05:02:09;;;;;;;12.50;8.98;;;12.30;99.90;;;;;;5035765;28;20095;-86
2022/05/20 05:04:34;;;;;;;12.65;9.60;;;12.30;99.90;;;;;;5035922;28;20453;-87
2022/05/20 05:07:00;;;;;;;14.93;8.90;;;12.40;99.90;;;;;;5034704;28;20128;-85
2022/05/20 05:09:26;;;;;;;13.70;10.05;;;12.50;99.90;;;;;;5035530;28;20054;-84
2022/05/20 05:11:52;;;;;;;14.82;9.65;;;12.50;99.90;;;;;;5018080;28;20132;-86
2022/05/20 05:14:19;;;;;;;10.60;8.88;;;12.50;99.90;;;;;;5035662;28;20095;-85
2022/05/20 05:16:45;;;;;;;11.15;9.07;;;12.60;99.90;;;;;;5035520;28;20457;-86
2022/05/20 05:19:11;;;;;;;13.93;9.63;;;12.70;99.90;;;;;;5034159;28;20124;-86
2022/05/20 05:21:37;;;;;;;10.13;8.20;;;12.60;99.90;;;;;;5035487;28;20398;-86
2022/05/20 05:24:04;;;;;;;13.80;10.20;;;12.50;99.90;;;;;;5033592;28;20046;-85
2022/05/20 05:26:32;;;;;;;14.02;9.77;;;12.70;99.90;;;;;;5035387;28;20056;-86
2022/05/20 05:29:00;;;;;;;13.85;9.85;;;12.60;99.90;;;;;;5034181;28;20041;-84
2022/05/20 05:31:26;;;;;;;13.77;10.30;;;12.70;99.90;;;;;;5034542;28;20060;-84
2022/05/20 05:33:53;;;;;;;16.70;10.65;;;12.70;99.90;;;;;;5035160;28;20124;-84
2022/05/20 05:36:19;;;;;;;16.40;10.43;;;12.80;99.90;;;;;;5035167;28;20279;-85
2022/05/20 05:38:46;;;;;;;13.93;9.70;;;13.10;99.90;;;;;;5017506;28;20056;-81
2022/05/20 05:41:13;;;;;;;14.55;10.18;;;12.80;99.90;;;;;;5035215;28;20045;-85
2022/05/20 05:43:39;;;;;;;16.30;11.25;;;12.90;99.90;;;;;;5035238;28;20144;-84
2022/05/20 05:46:05;;;;;;;14.05;10.93;;;13.00;99.90;;;;;;5034170;28;20124;-85
2022/05/20 05:48:31;;;;;;;13.15;10.77;;;12.90;99.90;;;;;;5034194;28;20045;-84
2022/05/20 05:50:57;;;;;;;18.73;12.25;;;13.00;99.90;;;;;;5034498;28;20044;-84
2022/05/20 05:53:27;;;;;;;15.90;10.90;;;13.10;99.90;;;;;;5033164;28;20405;-84
2022/05/20 05:55:58;;;;;;;16.33;10.95;;;13.10;99.90;;;;;;5034849;28;20041;-86
2022/05/20 05:58:26;;;;;;;18.92;12.63;;;13.20;99.90;;;;;;5033644;28;20541;-84
2022/05/20 06:00:53;;;;;;;15.77;11.65;;;13.30;99.90;;;;;;5034636;28;20092;-84
2022/05/20 06:03:18;;;;;;;14.95;11.57;;;13.30;99.90;;;;;;5034738;28;20489;-82
2022/05/20 06:05:44;;;;;;;14.18;11.35;;;13.40;99.90;;;;;;5033304;28;20052;-83
2022/05/20 06:08:10;;;;;;;18.25;12.45;;;13.50;99.90;;;;;;5034394;28;20052;-83
2022/05/20 06:10:36;;;;;;;18.15;12.30;;;13.60;99.90;;;;;;5017164;28;20049;-83
2022/05/20 06:13:02;;;;;;;14.52;12.52;;;13.60;99.90;;;;;;5033582;28;20092;-84
2022/05/20 06:15:29;;;;;;;17.90;11.93;;;13.60;99.90;;;;;;5034501;28;20041;-84
2022/05/20 06:17:58;;;;;;;16.75;12.48;;;13.70;99.90;;;;;;5032589;28;20491;-83
2022/05/20 06:20:25;;;;;;;16.60;12.35;;;13.70;99.90;;;;;;5033347;28;20045;-82
2022/05/20 06:22:51;;;;;;;16.85;12.27;;;13.80;99.90;;;;;;5034315;28;20124;-83
2022/05/20 06:25:17;;;;;;;18.95;12.43;;;13.90;99.90;;;;;;5034303;28;20183;-82
2022/05/20 06:27:44;;;;;;;16.85;11.32;;;13.90;99.90;;;;;;5034217;28;20056;-85
2022/05/20 06:30:14;;;;;;;15.60;11.70;;;14.00;99.90;;;;;;5034173;28;20052;-83
2022/05/20 06:32:39;;;;;;;14.30;11.93;;;14.00;99.90;;;;;;5034416;28;20049;-85
2022/05/20 06:40:36;;;;;;;16.35;10.20;;;14.10;99.90;;;;;;5033812;28;20050;-84
2022/05/20 06:43:02;;;;;;;15.20;10.90;;;14.10;99.90;;;;;;5033722;28;20132;-87
2022/05/20 06:45:31;;;;;;;15.77;11.38;;;14.20;99.90;;;;;;5033618;28;20474;-84
2022/05/20 06:47:58;;;;;;;13.57;9.60;;;14.20;99.90;;;;;;5033886;28;20045;-83
2022/05/20 06:50:24;;;;;;;12.13;8.00;;;14.30;99.90;;;;;;5032827;28;20053;-82
2022/05/20 06:52:50;;;;;;;11.65;7.90;;;14.40;99.90;;;;;;5033481;28;20398;-82
2022/05/20 06:55:15;;;;;;;13.43;7.90;;;14.50;99.90;;;;;;5033870;28;20044;-82
2022/05/20 06:57:41;;;;;;;12.48;8.52;;;14.60;99.90;;;;;;5033977;28;20049;-85
2022/05/20 07:00:12;;;;;;;13.73;7.97;;;14.60;99.90;;;;;;5032350;28;20045;-86
2022/05/20 07:02:39;;;;;;;11.73;7.65;;;14.70;99.90;;;;;;5033791;28;20058;-82
2022/05/20 07:05:06;;;;;;;10.27;7.22;;;14.70;99.90;;;;;;5033771;28;20045;-83
2022/05/20 07:07:32;;;;;;;10.50;6.93;;;14.70;99.90;;;;;;5032752;28;20053;-81
2022/05/20 07:09:58;;;;;;;8.85;6.18;;;14.90;99.90;;;;;;5032621;28;20052;-86
2022/05/20 07:12:24;;;;;;;10.50;6.47;;;14.80;99.90;;;;;;5032630;28;20045;-85
2022/05/20 07:14:49;;;;;;;7.03;6.28;;;14.90;99.90;;;;;;5032117;28;20073;-87
2022/05/20 07:17:16;;;;;;;9.60;6.72;;;15.00;99.90;;;;;;5033646;28;20049;-89
2022/05/20 07:19:42;;;;;;;10.07;6.53;;;15.10;99.90;;;;;;5033610;28;20045;-92
2022/05/20 07:22:09;;;;;;;10.90;6.40;;;15.00;99.90;;;;;;5032970;28;20037;-83
2022/05/20 07:24:34;;;;;;;8.50;6.25;;;15.00;99.90;;;;;;5032230;28;20052;-85
2022/05/20 07:27:00;;;;;;;10.77;6.72;;;15.10;99.90;;;;;;5033308;28;20045;-84
2022/05/20 07:29:25;;;;;;;7.63;5.45;;;15.10;99.90;;;;;;5032013;28;20489;-84
2022/05/20 07:31:51;;;;;;;7.53;5.20;;;15.10;99.90;;;;;;5033499;28;20128;-89
2022/05/20 07:34:17;;;;;;;10.68;5.40;;;15.20;99.90;;;;;;5033380;28;20045;-78
2022/05/20 07:36:43;;;;;;;6.68;4.72;;;15.20;99.90;;;;;;5032193;28;20041;-79
2022/05/20 07:39:08;;;;;;;7.82;4.97;;;15.20;99.90;;;;;;5032296;28;20053;-80
2022/05/20 07:41:35;;;;;;;7.88;5.40;;;15.20;99.90;;;;;;5033165;28;20408;-80
2022/05/20 07:44:01;;;;;;;9.07;4.30;;;15.30;99.90;;;;;;5033003;28;20056;-81
2022/05/20 07:46:27;;;;;;;8.77;4.43;;;15.40;99.90;;;;;;5022052;28;20397;-77
2022/05/20 07:48:54;;;;;;;6.68;3.78;;;15.50;99.90;;;;;;5023996;28;20037;-76
2022/05/20 07:51:23;;;;;;;5.68;3.97;;;15.50;99.90;;;;;;5022557;28;20545;-77
2022/05/20 07:53:56;;;;;;;5.55;4.30;;;15.60;99.90;;;;;;5037024;28;20080;-80
2022/05/20 07:56:31;;;;;;;4.72;4.05;;;15.70;99.90;;;;;;5026668;28;20052;-81
2022/05/20 07:59:04;;;;;;;6.60;4.32;;;15.60;99.90;;;;;;5028521;28;20052;-79
2022/05/20 08:01:32;;;;;;;5.65;3.88;;;15.70;99.90;;;;;;5027916;28;20099;-79
2022/05/20 08:06:47;;;;;;;5.43;4.30;;;15.80;99.90;;;;;;5027406;28;20045;-79
2022/05/20 08:09:13;;;;;;;7.05;4.35;;;15.90;99.90;;;;;;5027756;28;20041;-78
2022/05/20 08:11:38;;;;;;;5.53;3.90;;;15.90;99.90;;;;;;5026447;28;20056;-78
2022/05/20 08:14:04;;;;;;;6.95;3.72;;;15.90;99.90;;;;;;5041853;28;20045;-78
2022/05/20 08:16:30;;;;;;;6.15;3.55;;;15.90;99.90;;;;;;5026299;28;20129;-79
2022/05/20 08:18:56;;;;;;;7.28;3.83;;;16.00;99.90;;;;;;5024437;28;20524;-79
2022/05/20 08:21:21;;;;;;;6.43;4.10;;;16.00;99.90;;;;;;5026187;28;20095;-78
2022/05/20 08:23:47;;;;;;;4.95;3.45;;;16.10;99.90;;;;;;5026494;28;20049;-79
2022/05/20 08:26:18;;;;;;;5.28;2.70;;;16.20;99.90;;;;;;5025332;28;20053;-79
2022/05/20 08:28:45;;;;;;;3.10;2.03;;;16.30;99.90;;;;;;5026064;28;20071;-79
2022/05/20 08:31:11;;;;;;;5.50;2.92;;;16.30;99.90;;;;;;5024480;28;20350;-77
2022/05/20 08:33:37;;;;;;;3.65;2.50;;;15.60;99.90;;;;;;5025058;28;20052;-75
2022/05/20 08:36:03;;;;;;;5.53;2.80;;;16.00;99.90;;;;;;5026214;28;20042;-74
2022/05/20 08:38:30;;;;;;;6.95;2.88;;;16.40;99.90;;;;;;5027128;28;20053;-77
2022/05/20 08:40:58;;;;;;;3.65;2.22;;;16.40;99.90;;;;;;5030232;28;20773;-78
2022/05/20 08:43:28;;;;;;;3.15;2.30;;;16.50;99.90;;;;;;5029943;28;20103;-78
2022/05/20 08:45:54;;;;;;;5.68;2.67;;;16.50;99.90;;;;;;5029589;28;20049;-79
2022/05/20 08:48:19;;;;;;;6.60;2.30;;;16.60;99.90;;;;;;5030458;28;20041;-78
2022/05/20 08:50:54;;;;;;;4.20;2.30;;;16.70;99.90;;;;;;5033461;28;20103;-79
2022/05/20 08:53:27;;;;;;;5.07;2.00;;;16.70;99.90;;;;;;5028773;28;20111;-78
2022/05/20 08:55:58;;;;;;;4.15;1.75;;;16.80;99.90;;;;;;5031480;28;20045;-78
2022/05/20 08:58:25;;;;;;;6.88;2.50;;;16.80;99.90;;;;;;5029888;28;20049;-78
2022/05/20 09:00:51;;;;;;;3.90;2.30;;;16.80;99.90;;;;;;5028796;28;20160;-77
2022/05/20 09:03:17;;;;;;;3.88;2.80;;;16.80;99.90;;;;;;5028224;28;20142;-78
2022/05/20 09:05:44;;;;;;;3.25;2.10;;;16.80;99.90;;;;;;5029004;28;20467;-77
2022/05/20 09:08:28;;;;;;;3.75;2.15;;;16.80;99.90;;;;;;5029121;28;20041;-78
2022/05/20 09:10:57;;;;;;;5.38;3.13;;;16.80;99.90;;;;;;5031085;28;20044;-77
2022/05/20 09:16:19;;;;;;;5.45;3.17;;;16.70;99.90;;;;;;5027197;28;20063;-76
2022/05/20 09:18:50;;;;;;;5.32;2.72;;;16.80;99.90;;;;;;5029472;28;20045;-77
2022/05/20 09:21:36;;;;;;;6.13;2.97;;;16.80;99.90;;;;;;5040135;28;20056;-77
2022/05/20 09:24:21;;;;;;;4.03;2.58;;;16.90;99.90;;;;;;5024943;28;20083;-78
2022/05/20 09:27:09;;;;;;;4.13;2.75;;;16.90;99.90;;;;;;5013287;28;20741;-79
2022/05/20 09:29:45;;;;;;;3.90;1.77;;;17.00;99.90;;;;;;5026424;28;20048;-79
2022/05/20 09:32:22;;;;;;;2.65;1.77;;;17.10;99.90;;;;;;5025912;28;20057;-79
2022/05/20 09:35:21;;;;;;;3.97;2.17;;;17.20;99.90;;;;;;5026599;28;20041;-79
2022/05/20 09:37:52;;;;;;;4.05;2.50;;;17.40;99.90;;;;;;5026106;28;20111;-78
2022/05/20 09:40:38;;;;;;;4.63;2.78;;;17.30;99.90;;;;;;5025726;28;20132;-78
2022/05/20 09:43:06;;;;;;;3.80;2.60;;;17.30;99.90;;;;;;5027413;28;20106;-75
2022/05/20 09:45:51;;;;;;;7.88;3.08;;;17.40;99.90;;;;;;5025998;28;20041;-77
2022/05/20 09:48:24;;;;;;;5.13;2.80;;;17.40;99.90;;;;;;5026697;28;20076;-79
2022/05/20 09:51:03;;;;;;;4.30;2.90;;;17.50;99.90;;;;;;5025031;28;20336;-78
2022/05/20 09:53:39;;;;;;;4.97;2.67;;;17.60;99.90;;;;;;5026441;28;20140;-77
2022/05/20 09:56:32;;;;;;;3.55;2.88;;;17.70;99.90;;;;;;5023738;28;20049;-76
2022/05/20 09:59:17;;;;;;;;;;;17.80;99.90;;;;;;5025899;28;20061;-79
2022/05/20 10:02:28;;;;;;;4.75;2.80;;;17.90;99.90;;;;;;5025182;28;20292;-77
2022/05/20 10:05:18;;;;;;;6.00;2.08;;;17.90;99.90;;;;;;4990846;28;20042;-83
2022/05/20 10:07:47;;;;;;;4.70;2.28;;;18.00;99.90;;;;;;4987664;28;20046;-78
2022/05/20 10:10:34;;;;;;;3.22;2.15;;;18.00;99.90;;;;;;5017968;28;20089;-79
2022/05/20 10:13:04;;;;;;;4.07;2.47;;;18.00;99.90;;;;;;5026369;28;20045;-79
2022/05/20 10:15:52;;;;;;;3.92;2.67;;;18.10;99.90;;;;;;5025367;28;20601;-76
2022/05/20 10:19:04;;;;;;;4.40;2.83;;;18.10;99.90;;;;;;5024560;28;20053;-78
2022/05/20 10:21:56;;;;;;;2.38;1.30;;;18.10;99.90;;;;;;4982448;28;20061;-74
2022/05/20 10:24:55;;;;;;;4.28;1.90;;;18.20;99.90;;;;;;5025285;28;20482;-85
2022/05/20 10:27:48;;;;;;;3.47;1.90;;;18.20;99.90;;;;;;5024360;28;20489;-79
2022/05/20 10:33:12;;;;;;;7.38;2.78;;;18.30;99.90;;;;;;5024758;28;20057;-77
2022/05/20 10:35:56;;;;;;;4.40;2.60;;;18.30;99.90;;;;;;5027811;28;20037;-75
2022/05/20 10:38:37;;;;;;;3.78;2.78;;;18.40;99.90;;;;;;5025781;28;20053;-79
2022/05/20 10:41:24;;;;;;;6.30;3.30;;;18.40;99.90;;;;;;5028566;28;20095;-78
2022/05/20 10:50:31;;;;;;;4.93;2.90;;;18.60;99.90;;;;;;5028431;28;20054;-81
2022/05/20 10:53:31;;;;;;;5.97;2.83;;;18.70;99.90;;;;;;5029932;28;20060;-80
2022/05/20 10:56:27;;;;;;;4.50;2.72;;;18.80;99.90;;;;;;5028568;28;20120;-78
2022/05/20 10:59:27;;;;;;;3.47;3.17;;;18.80;99.90;;;;;;5043283;28;20054;-79
2022/05/20 11:02:09;;;;;;;4.30;3.90;;;18.90;99.90;;;;;;5041621;28;20107;-79
2022/05/20 11:04:52;;;;;;;3.95;3.55;;;19.00;99.90;;;;;;5028006;28;20045;-81
2022/05/20 11:07:30;;;;;;;5.68;4.07;;;19.00;99.90;;;;;;5028727;28;20172;-80
2022/05/20 11:10:05;;;;;;;7.65;3.97;;;19.10;99.90;;;;;;5029420;28;20053;-80
2022/05/20 11:12:36;;;;;;;6.05;4.03;;;19.20;99.90;;;;;;5026492;28;20482;-80
2022/05/20 11:15:17;;;;;;;4.18;3.78;;;19.20;99.90;;;;;;5026539;28;20372;-81
2022/05/20 11:18:21;;;;;;;4.57;3.33;;;19.30;99.90;;;;;;5028264;28;20042;-80
2022/05/20 11:21:01;;;;;;;5.45;4.15;;;19.30;99.90;;;;;;5028117;28;20053;-78
2022/05/20 11:23:47;;;;;;;5.45;4.43;;;19.30;99.90;;;;;;5027761;28;20448;-78
2022/05/20 11:26:44;;;;;;;4.88;3.65;;;19.30;99.90;;;;;;5027888;28;20430;-79
2022/05/20 11:29:34;;;;;;;4.43;3.95;;;19.40;99.90;;;;;;5027101;28;20379;-78
2022/05/20 11:32:07;;;;;;;4.82;4.30;;;19.40;99.90;;;;;;5026295;28;20041;-79
2022/05/20 11:34:54;;;;;;;5.03;3.97;;;19.40;99.90;;;;;;5028472;28;20381;-79
2022/05/20 11:37:32;;;;;;;4.45;3.47;;;19.40;99.90;;;;;;5027259;28;20520;-78
2022/05/20 11:40:32;;;;;;;4.10;3.70;;;19.40;99.90;;;;;;5027631;28;20145;-79
2022/05/20 11:43:25;;;;;;;4.85;3.83;;;19.40;99.90;;;;;;5025168;28;20059;-80
2022/05/20 11:46:05;;;;;;;5.10;4.50;;;19.40;99.90;;;;;;5026972;28;20502;-80
2022/05/20 11:49:14;;;;;;;4.35;3.95;;;19.50;99.90;;;;;;5026535;28;20073;-82
2022/05/20 11:52:01;;;;;;;5.25;4.35;;;19.50;99.90;;;;;;5023553;28;20477;-79
2022/05/20 11:54:33;;;;;;;4.45;4.05;;;19.60;99.90;;;;;;5024500;28;20378;-79
2022/05/20 11:57:08;;;;;;;5.63;3.42;;;19.60;99.90;;;;;;5007367;28;20053;-79
2022/05/20 12:00:02;;;;;;;4.65;2.70;;;19.60;99.90;;;;;;5024735;28;20049;-76
2022/05/20 12:02:30;;;;;;;2.72;2.20;;;19.60;99.90;;;;;;5026218;28;20041;-80
2022/05/20 12:04:57;;;;;;;3.95;3.10;;;19.60;99.90;;;;;;5024374;28;20069;-80
2022/05/20 12:07:25;;;;;;;2.63;2.15;;;19.60;99.90;;;;;;5033703;28;20098;-80
2022/05/20 12:09:54;;;;;;;3.65;2.67;;;19.70;99.90;;;;;;5024764;28;20068;-79
2022/05/20 12:12:30;;;;;;;2.97;2.58;;;19.70;99.90;;;;;;5024660;28;20050;-79
2022/05/20 12:15:07;;;;;;;3.80;3.20;;;19.80;99.90;;;;;;5022455;28;20676;-75
2022/05/20 12:17:41;;;;;;;3.13;2.50;;;19.90;99.90;;;;;;5023713;28;20045;-80
2022/05/20 12:26:00;;;;;;;4.30;3.08;;;19.80;99.90;;;;;;5024111;28;20515;-76
2022/05/20 12:28:26;;;;;;;4.37;3.40;;;19.90;99.90;;;;;;5025337;28;20044;-79
2022/05/20 12:31:09;;;;;;;5.05;3.55;;;19.90;99.90;;;;;;5024521;28;20602;-83
2022/05/20 12:34:10;;;;;;;3.70;3.22;;;19.90;99.90;;;;;;5024437;28;20042;-80
2022/05/20 12:36:36;;;;;;;4.03;2.83;;;19.90;99.90;;;;;;5023701;28;20156;-79
2022/05/20 12:39:18;;;;;;;4.82;3.10;;;19.90;99.90;;;;;;5037786;28;20054;-81
2022/05/20 12:41:49;;;;;;;3.75;3.30;;;19.90;99.90;;;;;;5025567;28;20120;-79
2022/05/20 12:44:17;;;;;;;4.63;3.67;;;19.90;99.90;;;;;;5028171;28;20053;-80
2022/05/20 12:47:04;;;;;;;3.72;3.33;;;19.90;99.90;;;;;;5026759;28;20045;-80
2022/05/20 12:49:42;;;;;;;5.18;3.63;;;19.90;99.90;;;;;;5027846;28;20749;-78
2022/05/20 12:52:25;;;;;;;5.63;3.97;;;19.90;99.90;;;;;;5028757;28;20057;-79
2022/05/20 12:54:54;;;;;;;5.70;3.95;;;19.90;99.90;;;;;;5027553;28;20077;-80
2022/05/20 12:57:30;;;;;;;5.53;4.47;;;19.90;99.90;;;;;;5028362;28;20049;-79
2022/05/20 13:00:12;;;;;;;5.47;4.55;;;19.90;99.90;;;;;;5026757;28;20045;-80
2022/05/20 13:02:54;;;;;;;6.80;4.63;;;19.90;99.90;;;;;;5028195;28;20495;-78
2022/05/20 13:05:25;;;;;;;5.82;4.85;;;20.00;99.90;;;;;;5027844;28;20124;-77
2022/05/20 13:07:53;;;;;;;3.60;3.30;;;20.00;99.90;;;;;;5010051;28;20049;-79
2022/05/20 13:10:23;;;;;;;4.25;2.92;;;20.10;99.90;;;;;;5028210;28;20052;-78
2022/05/20 13:12:54;;;;;;;2.65;2.45;;;20.00;99.90;;;;;;5028360;28;20054;-79
2022/05/20 13:15:20;;;;;;;3.88;1.70;;;20.00;99.90;;;;;;5035166;28;20057;-78
2022/05/20 13:18:05;;;;;;;2.33;2.10;;;19.90;99.90;;;;;;5035672;28;20511;-76
2022/05/20 13:20:35;;;;;;;4.65;3.05;;;19.80;99.90;;;;;;5035694;28;20099;-79
2022/05/20 13:23:03;;;;;;;4.18;2.65;;;19.80;99.90;;;;;;5034108;28;20049;-77
2022/05/20 13:25:29;;;;;;;3.25;2.50;;;19.70;99.90;;;;;;5035606;28;20046;-79
2022/05/20 13:27:55;;;;;;;4.15;2.78;;;19.60;99.90;;;;;;5035185;28;20045;-79
2022/05/20 13:30:26;;;;;;;3.10;2.80;;;19.60;99.90;;;;;;5028252;28;20049;-78
2022/05/20 13:33:03;;;;;;;4.18;2.50;;;19.60;99.90;;;;;;5034165;28;20394;-77
2022/05/20 13:35:30;;;;;;;2.90;2.47;;;19.60;99.90;;;;;;5035340;28;20367;-78
2022/05/20 13:37:59;;;;;;;2.83;2.10;;;19.50;99.90;;;;;;5034381;28;20064;-78
2022/05/20 13:40:41;;;;;;;3.45;1.83;;;19.50;99.90;;;;;;5034984;28;20053;-78
2022/05/20 13:43:13;;;;;;;3.38;2.72;;;19.40;99.90;;;;;;5035220;28;20041;-79